| time (UTC) | temp C | wind direction | speed KPH | gust KPH | rain 1hr cm | rain 24hr cm | rain mn cm | humidity % | barometer mb |
| 20260507094840 | 20 | 272 | 4.8 | 14.5 | 0.00 | 0.03 | 0.03 | 54 | 1013.4 |
| 20260507093840 | 20 | 314 | 1.6 | 11.3 | 0.00 | 0.03 | 0.03 | 58 | 1013.4 |
| 20260507092840 | 20 | 314 | 4.8 | 9.7 | 0.00 | 0.03 | 0.03 | 60 | 1013.4 |
| 20260507091840 | 20 | 283 | 1.6 | 9.7 | 0.00 | 0.03 | 0.03 | 61 | 1013.5 |
| 20260507090840 | 19 | 249 | 0.0 | 12.9 | 0.00 | 0.03 | 0.03 | 62 | 1013.5 |
| 20260507085840 | 20 | 277 | 9.7 | 12.9 | 0.00 | 0.03 | 0.03 | 66 | 1013.5 |
| 20260507084840 | 19 | 274 | 3.2 | 12.9 | 0.00 | 0.03 | 0.03 | 64 | 1013.5 |
| 20260507083840 | 19 | 326 | 4.8 | 11.3 | 0.00 | 0.03 | 0.03 | 66 | 1013.5 |
| 20260507082900 | 18 | 288 | 1.6 | 11.3 | 0.00 | 0.03 | 0.03 | 66 | 1013.5 |
| 20260507081840 | 18 | 303 | 3.2 | 11.3 | 0.00 | 0.03 | 0.03 | 66 | 1013.4 |
| 20260507080840 | 18 | 305 | 1.6 | 9.7 | 0.00 | 0.03 | 0.03 | 67 | 1013.2 |
| 20260507075840 | 18 | 316 | 3.2 | 4.8 | 0.00 | 0.03 | 0.03 | 70 | 1013.1 |
| 20260507074840 | 18 | 316 | 3.2 | 4.8 | 0.00 | 0.03 | 0.03 | 74 | 1013.1 |
| 20260507073840 | 17 | 318 | 1.6 | 8.0 | 0.00 | 0.03 | 0.03 | 75 | 1013.3 |
| 20260507072840 | 17 | 318 | 3.2 | 8.0 | 0.00 | 0.03 | 0.03 | 77 | 1013.3 |
| 20260507071840 | 17 | 319 | 0.0 | 8.0 | 0.00 | 0.03 | 0.03 | 78 | 1013.4 |
| 20260507070840 | 17 | 318 | 1.6 | 8.0 | 0.00 | 0.03 | 0.03 | 77 | 1013.3 |
| 20260507065840 | 17 | 270 | 8.0 | 8.0 | 0.00 | 0.03 | 0.03 | 78 | 1013.1 |
| 20260507064839 | 17 | 249 | 3.2 | 4.8 | 0.00 | 0.03 | 0.03 | 78 | 1013.1 |
| 20260507063839 | 16 | 270 | 4.8 | 11.3 | 0.00 | 0.03 | 0.03 | 79 | 1013.1 |
| 20260507062840 | 16 | 284 | 4.8 | 11.3 | 0.00 | 0.03 | 0.03 | 80 | 1013.0 |
| 20260507061840 | 16 | 274 | 9.7 | 11.3 | 0.00 | 0.03 | 0.03 | 82 | 1013.0 |
| 20260507030839 | 16 | 312 | 1.6 | 4.8 | 0.00 | 0.03 | 0.00 | 76 | 1012.0 |
| 20260507025839 | 16 | 298 | 0.0 | 4.8 | 0.00 | 0.03 | 0.00 | 74 | 1011.8 |
| 20260507024839 | 16 | 298 | 3.2 | 4.8 | 0.00 | 0.03 | 0.00 | 73 | 1011.7 |
| 20260507023839 | 16 | 284 | 0.0 | 11.3 | 0.00 | 0.03 | 0.00 | 73 | 1011.6 |
| 20260507022839 | 16 | 280 | 4.8 | 11.3 | 0.00 | 0.03 | 0.00 | 75 | 1011.6 |
| 20260507021839 | 16 | 17 | 3.2 | 11.3 | 0.00 | 0.03 | 0.00 | 75 | 1011.4 |
| 20260507020859 | 16 | 14 | 3.2 | 14.5 | 0.00 | 0.03 | 0.00 | 75 | 1011.6 |
| 20260507015839 | 16 | 299 | 0.0 | 14.5 | 0.00 | 0.03 | 0.00 | 74 | 1011.4 |
| 20260506225838 | 16 | 293 | 3.2 | 12.9 | 0.00 | 0.03 | 0.00 | 76 | 1011.8 |
| 20260506224838 | 17 | 299 | 0.0 | 12.9 | 0.00 | 0.03 | 0.00 | 75 | 1011.8 |
| 20260506223838 | 17 | 118 | 3.2 | 4.8 | 0.00 | 0.03 | 0.00 | 77 | 1012.0 |
| 20260506222838 | 17 | 118 | 0.0 | 3.2 | 0.00 | 0.03 | 0.00 | 76 | 1011.9 |
| 20260506221838 | 17 | 118 | 0.0 | 3.2 | 0.00 | 0.03 | 0.00 | 74 | 1011.7 |
| 20260506220838 | 17 | 118 | 4.8 | 4.8 | 0.00 | 0.03 | 0.03 | 75 | 1011.6 |
| 20260506153837 | 19 | 122 | 1.6 | 9.7 | 0.00 | 0.03 | 0.03 | 76 | 1010.6 |
| 20260506152837 | 19 | 99 | 4.8 | 9.7 | 0.00 | 0.03 | 0.03 | 76 | 1010.4 |
| 20260506151837 | 19 | 178 | 3.2 | 6.4 | 0.00 | 0.03 | 0.03 | 76 | 1010.7 |
| 20260506150837 | 19 | 110 | 8.0 | 8.0 | 0.00 | 0.03 | 0.03 | 76 | 1010.6 |